createdAt,value
2023-01-23T00:01:19.543Z,99981.03
2023-01-23T00:03:46.713Z,99985.75
2023-01-23T00:06:16.196Z,99989.28
2023-01-23T00:08:45.294Z,99990.50
2023-01-23T00:11:14.763Z,99983.91
2023-01-23T00:13:41.668Z,99983.50
2023-01-23T00:16:13.655Z,99987.81
2023-01-23T00:18:41.910Z,99990.50
2023-01-23T00:21:14.516Z,99981.66
2023-01-23T00:23:46.857Z,99982.25
2023-01-23T00:26:16.598Z,99976.72
2023-01-23T00:28:45.571Z,99974.84
2023-01-23T00:31:21.812Z,99968.69
2023-01-23T00:33:48.821Z,99972.78
2023-01-23T00:36:15.785Z,99963.16
2023-01-23T00:38:43.217Z,99967.25
2023-01-23T00:41:09.950Z,99973.81
2023-01-23T00:43:36.678Z,99968.28
2023-01-23T00:46:03.392Z,99972.78
2023-01-23T00:48:30.707Z,99978.16
2023-01-23T00:50:57.493Z,99969.09
2023-01-23T00:53:24.687Z,99975.28
2023-01-23T00:55:51.628Z,99977.34
2023-01-23T00:58:18.778Z,99979.59
2023-01-23T01:00:45.818Z,99980.44
2023-01-23T01:03:12.941Z,99979.41
2023-01-23T01:05:39.683Z,99977.72
2023-01-23T01:08:06.537Z,99981.22
2023-01-23T01:10:34.013Z,99986.38
2023-01-23T01:13:02.946Z,99994.63
2023-01-23T01:15:31.479Z,99989.28
2023-01-23T01:17:59.079Z,99991.72
2023-01-23T01:20:28.131Z,99999.31
2023-01-23T01:22:56.785Z,99995.00
2023-01-23T01:25:23.546Z,99999.09
2023-01-23T01:27:50.244Z,99994.19
2023-01-23T01:30:18.777Z,99990.88
2023-01-23T01:32:46.054Z,99996.44
2023-01-23T01:35:13.032Z,99990.66
2023-01-23T01:37:41.098Z,99997.28
2023-01-23T01:40:12.858Z,99999.53
2023-01-23T01:42:54.898Z,99988.00
2023-01-23T01:45:59.338Z,99999.09
2023-01-23T01:48:52.213Z,100007.13
2023-01-23T01:52:05.667Z,100010.63
2023-01-23T01:54:43.018Z,100006.53
2023-01-23T01:57:31.918Z,100008.59
2023-01-23T02:00:01.417Z,100011.47
2023-01-23T02:02:32.817Z,100021.72
2023-01-23T02:05:26.019Z,100015.16
2023-01-23T02:08:18.826Z,100018.66
2023-01-23T02:10:45.950Z,100017.00
2023-01-23T02:13:32.335Z,100027.06
2023-01-23T02:16:02.059Z,100028.94
2023-01-23T02:18:31.255Z,100017.63
2023-01-23T02:21:01.476Z,100026.47
2023-01-23T02:23:40.730Z,100026.25
2023-01-23T02:26:12.606Z,100024.44
2023-01-23T02:28:42.870Z,100021.75
2023-01-23T02:31:10.337Z,100023.19
2023-01-23T02:33:37.078Z,100017.22
2023-01-23T02:36:05.429Z,100017.41
2023-01-23T02:38:45.523Z,100027.69
2023-01-23T02:41:14.107Z,100022.97
2023-01-23T02:43:41.954Z,100020.50
2023-01-23T02:46:11.216Z,100022.34
2023-01-23T02:48:43.856Z,100018.88
2023-01-23T02:51:10.620Z,100011.88
2023-01-23T02:53:37.949Z,100011.88
2023-01-23T02:56:05.231Z,100011.03
2023-01-23T02:58:50.841Z,100005.69
2023-01-23T03:01:17.619Z,100018.84
2023-01-23T03:03:44.701Z,100009.81
2023-01-23T03:06:11.879Z,100012.91
2023-01-23T03:08:47.486Z,100015.97
2023-01-23T03:11:16.603Z,100011.47
2023-01-23T03:13:45.001Z,100017.41
2023-01-23T03:16:12.024Z,100022.75
2023-01-23T03:18:52.795Z,100019.06
2023-01-23T03:21:20.689Z,100013.94
2023-01-23T03:23:48.362Z,100022.97
2023-01-23T03:26:15.740Z,100019.28
2023-01-23T03:29:01.182Z,100017.22
2023-01-23T03:31:28.053Z,100019.91
2023-01-23T03:33:54.947Z,100011.03
2023-01-23T03:36:21.706Z,100023.78
2023-01-23T03:39:07.083Z,100018.66
2023-01-23T03:41:33.941Z,100019.06
2023-01-23T03:44:00.684Z,100011.25
2023-01-23T03:46:27.478Z,100017.03
2023-01-23T03:48:54.199Z,100004.47
2023-01-23T03:51:21.005Z,100005.69
2023-01-23T03:53:47.708Z,100007.75
2023-01-23T03:56:14.420Z,100007.13
2023-01-23T03:58:41.104Z,100011.47
2023-01-23T04:01:09.679Z,100008.59
2023-01-23T04:03:36.787Z,99998.72
2023-01-23T04:06:03.618Z,100011.03
2023-01-23T04:08:30.510Z,100007.97
2023-01-23T04:11:05.818Z,100013.91
2023-01-23T04:13:32.648Z,100011.47
2023-01-23T04:16:00.453Z,100021.31
2023-01-23T04:18:27.914Z,100019.25
2023-01-23T04:20:55.781Z,100023.16
2023-01-23T04:23:23.362Z,100019.47
2023-01-23T04:25:50.620Z,100031.19
2023-01-23T04:28:17.779Z,100031.81
2023-01-23T04:30:45.043Z,100034.69
2023-01-23T04:33:12.144Z,100045.78
2023-01-23T04:35:38.869Z,100049.06
2023-01-23T04:38:05.694Z,100059.56
2023-01-23T04:40:32.485Z,100063.69
2023-01-23T04:42:59.301Z,100057.72
2023-01-23T04:45:26.056Z,100060.38
2023-01-23T04:47:52.774Z,100065.72
2023-01-23T04:50:19.965Z,100061.22
2023-01-23T04:52:47.029Z,100066.97
2023-01-23T04:55:14.039Z,100064.09
2023-01-23T04:57:40.837Z,100065.31
2023-01-23T05:00:08.652Z,100063.47
2023-01-23T05:02:35.393Z,100067.38
2023-01-23T05:05:02.358Z,100056.91
2023-01-23T05:07:29.118Z,100061.41
2023-01-23T05:09:55.830Z,100053.38
2023-01-23T05:12:22.485Z,100064.06
2023-01-23T05:14:49.258Z,100063.47
2023-01-23T05:17:16.011Z,100059.16
2023-01-23T05:19:45.745Z,100069.41
2023-01-23T05:22:12.607Z,100060.78
2023-01-23T05:24:39.323Z,100060.41
2023-01-23T05:27:06.118Z,100062.44
2023-01-23T05:29:32.833Z,100058.94
2023-01-23T05:31:59.563Z,100057.53
2023-01-23T05:34:26.469Z,100075.59
2023-01-23T05:36:53.238Z,100065.31
2023-01-23T05:39:20.092Z,100069.44
2023-01-23T05:41:46.938Z,100071.28
2023-01-23T05:44:16.039Z,100075.59
2023-01-23T05:46:42.747Z,100068.81
2023-01-23T05:49:09.539Z,100075.19
2023-01-23T05:51:36.518Z,100079.72
2023-01-23T05:54:03.598Z,100072.31
2023-01-23T05:56:30.439Z,100073.13
2023-01-23T05:58:58.408Z,100075.41
2023-01-23T06:01:25.436Z,100072.13
2023-01-23T06:03:52.324Z,100073.53
2023-01-23T06:06:19.201Z,100070.66
2023-01-23T06:08:46.025Z,100083.00
2023-01-23T06:11:12.908Z,100079.50
2023-01-23T06:13:39.661Z,100078.06
2023-01-23T06:16:09.105Z,100083.81
2023-01-23T06:18:37.263Z,100078.69
2023-01-23T06:21:04.367Z,100090.59
2023-01-23T06:23:31.019Z,100081.56
2023-01-23T06:26:02.314Z,100092.06
2023-01-23T06:28:29.655Z,100083.63
2023-01-23T06:31:01.810Z,100084.25
2023-01-23T06:33:28.689Z,100095.75
2023-01-23T06:36:03.390Z,100087.94
2023-01-23T06:38:30.953Z,100093.50
2023-01-23T06:40:57.911Z,100105.22
2023-01-23T06:43:26.123Z,100114.03
2023-01-23T06:45:53.022Z,100110.75
2023-01-23T06:48:20.792Z,100121.44
2023-01-23T06:50:47.592Z,100124.13
2023-01-23T06:53:16.038Z,100124.75
2023-01-23T06:55:42.980Z,100127.19
2023-01-23T06:58:10.602Z,100134.19
2023-01-23T07:00:37.471Z,100132.97
2023-01-23T07:03:04.498Z,100132.13
2023-01-23T07:05:35.938Z,100143.22
2023-01-23T07:08:04.086Z,100148.97
2023-01-23T07:10:32.340Z,100148.97
2023-01-23T07:12:59.110Z,100143.84
2023-01-23T07:15:25.983Z,100159.91
2023-01-23T07:17:53.280Z,100152.06
2023-01-23T07:20:27.569Z,100155.16
2023-01-23T07:22:55.653Z,100160.09
2023-01-23T07:25:24.161Z,100166.47
2023-01-23T07:27:51.239Z,100164.63
2023-01-23T07:30:18.939Z,100170.16
2023-01-23T07:32:46.081Z,100164.19
2023-01-23T07:35:12.938Z,100169.34
2023-01-23T07:37:39.871Z,100173.44
2023-01-23T07:40:07.258Z,100172.00
2023-01-23T07:42:34.303Z,100176.94
2023-01-23T07:45:04.069Z,100175.31
2023-01-23T07:47:30.943Z,100172.63
2023-01-23T07:49:57.689Z,100181.09
2023-01-23T07:52:24.485Z,100181.28
2023-01-23T07:54:51.364Z,100178.41
2023-01-23T07:57:18.003Z,100179.84
2023-01-23T07:59:44.779Z,100177.78
2023-01-23T08:02:11.879Z,100180.06
2023-01-23T08:04:38.604Z,100181.28
2023-01-23T08:07:05.546Z,100176.16
2023-01-23T08:09:32.492Z,100173.88
2023-01-23T08:11:59.270Z,100170.81
2023-01-23T08:14:26.147Z,100168.53
2023-01-23T08:16:53.311Z,100171.88
2023-01-23T08:19:20.159Z,100173.91
2023-01-23T08:21:47.457Z,100173.47
2023-01-23T08:24:14.378Z,100169.34
2023-01-23T08:26:42.223Z,100170.38
2023-01-23T08:29:10.910Z,100169.78
2023-01-23T08:31:38.317Z,100169.59
2023-01-23T08:34:05.471Z,100168.56
2023-01-23T08:36:32.464Z,100160.16
2023-01-23T08:39:00.060Z,100173.50
2023-01-23T08:41:26.919Z,100165.09
2023-01-23T08:43:53.873Z,100168.56
2023-01-23T08:46:20.720Z,100173.94
2023-01-23T08:48:47.510Z,100165.28
2023-01-23T08:51:14.863Z,100168.75
2023-01-23T08:53:42.024Z,100164.88
2023-01-23T08:56:16.902Z,100171.47
2023-01-23T08:58:44.699Z,100166.50
2023-01-23T09:01:13.501Z,100164.66
2023-01-23T09:03:40.289Z,100172.28
2023-01-23T09:06:07.555Z,100169.81
2023-01-23T09:08:36.698Z,100175.56
2023-01-23T09:11:05.984Z,100171.66
2023-01-23T09:13:33.749Z,100173.69
2023-01-23T09:16:00.539Z,100162.38
2023-01-23T09:18:27.385Z,100172.69
2023-01-23T09:20:54.989Z,100185.84
2023-01-23T09:23:22.805Z,100189.75
2023-01-23T09:25:49.722Z,100191.41
2023-01-23T09:28:16.698Z,100188.31
2023-01-23T09:30:43.943Z,100192.44
2023-01-23T09:33:10.679Z,100195.31
2023-01-23T09:35:37.474Z,100183.78
2023-01-23T09:38:06.990Z,100181.94
2023-01-23T09:40:45.588Z,100175.94
2023-01-23T09:43:17.504Z,100166.25
2023-01-23T09:45:58.427Z,100164.59
2023-01-23T09:48:53.870Z,100166.22
2023-01-23T09:51:26.820Z,100157.53
2023-01-23T09:53:58.341Z,100167.63
2023-01-23T09:56:31.665Z,100168.03
2023-01-23T09:59:00.389Z,100160.25
2023-01-23T10:01:30.553Z,100181.06
2023-01-23T10:03:59.532Z,100175.50
2023-01-23T10:06:32.194Z,100186.63
2023-01-23T10:09:22.107Z,100175.31
2023-01-23T10:12:06.824Z,100179.41
2023-01-23T10:15:15.472Z,100178.97
2023-01-23T10:18:01.300Z,100174.28
2023-01-23T10:20:45.168Z,100177.56
2023-01-23T10:23:23.943Z,100180.66
2023-01-23T10:25:51.822Z,100177.78
2023-01-23T10:28:27.863Z,100187.28
2023-01-23T10:31:00.677Z,100192.41
2023-01-23T10:33:40.069Z,100192.81
2023-01-23T10:36:42.070Z,100192.41
2023-01-23T10:39:18.759Z,100191.59
2023-01-23T10:41:51.153Z,100194.47
2023-01-23T10:44:20.000Z,100191.59
2023-01-23T10:46:49.726Z,100194.09
2023-01-23T10:49:43.986Z,100190.78
2023-01-23T10:52:29.625Z,100189.94
2023-01-23T10:54:56.542Z,100191.19
2023-01-23T10:57:29.628Z,100181.09
2023-01-23T11:00:07.092Z,100182.56
2023-01-23T11:02:40.238Z,100184.38
2023-01-23T11:05:50.398Z,100180.28
2023-01-23T11:08:40.453Z,100180.47
2023-01-23T11:11:16.349Z,100165.44
2023-01-23T11:13:44.949Z,100178.00
2023-01-23T11:16:18.240Z,100176.75
2023-01-23T11:19:11.469Z,100173.06
2023-01-23T11:21:52.913Z,100169.16
2023-01-23T11:24:38.653Z,100177.75
2023-01-23T11:27:21.012Z,100170.97
2023-01-23T11:29:59.936Z,100165.00
2023-01-23T11:32:30.114Z,100166.63
2023-01-23T11:35:13.148Z,100160.66
2023-01-23T11:37:41.020Z,100165.00
2023-01-23T11:40:19.673Z,100150.75
2023-01-23T11:42:47.431Z,100154.03
2023-01-23T11:45:29.479Z,100149.06
2023-01-23T11:48:09.985Z,100144.31
2023-01-23T11:50:55.360Z,100141.22
2023-01-23T11:53:42.456Z,100144.09
2023-01-23T11:56:31.176Z,100144.50
2023-01-23T11:59:09.052Z,100139.38
2023-01-23T12:02:04.054Z,100138.78
2023-01-23T12:04:52.589Z,100133.00
2023-01-23T12:07:22.975Z,100137.56
2023-01-23T12:10:11.578Z,100122.53
2023-01-23T12:13:00.292Z,100128.50
2023-01-23T12:16:00.709Z,100123.38
2023-01-23T12:18:29.211Z,100120.69
2023-01-23T12:21:14.805Z,100118.00
2023-01-23T12:23:59.313Z,100114.50
2023-01-23T12:26:29.443Z,100119.66
2023-01-23T12:29:18.807Z,100118.81
2023-01-23T12:32:19.771Z,100114.47
2023-01-23T12:35:06.626Z,100114.06
2023-01-23T12:37:51.010Z,100114.50
2023-01-23T12:40:39.530Z,100109.13
2023-01-23T12:43:16.639Z,100101.28
2023-01-23T12:45:53.150Z,100096.53
2023-01-23T12:48:28.444Z,100103.28
2023-01-23T12:51:02.080Z,100095.50
2023-01-23T12:53:36.076Z,100091.38
2023-01-23T12:56:10.422Z,100091.97
2023-01-23T12:58:42.392Z,100094.03
2023-01-23T13:01:31.539Z,100088.66
2023-01-23T13:04:14.360Z,100077.72
2023-01-23T13:07:13.735Z,100070.28
2023-01-23T13:10:02.466Z,100075.41
2023-01-23T13:12:30.099Z,100072.94
2023-01-23T13:15:39.220Z,100063.22
2023-01-23T13:18:22.911Z,100063.03
2023-01-23T13:21:17.972Z,100069.22
2023-01-23T13:23:45.115Z,100063.03
2023-01-23T13:26:15.011Z,100066.56
2023-01-23T13:28:47.809Z,100070.44
2023-01-23T13:31:40.466Z,100072.09
2023-01-23T13:34:30.041Z,100076.44
2023-01-23T13:37:28.524Z,100070.03
2023-01-23T13:40:13.416Z,100070.88
2023-01-23T13:42:40.318Z,100067.38
2023-01-23T13:45:16.258Z,100076.44
2023-01-23T14:21:18.708Z,100063.22
2023-01-23T14:23:50.666Z,100070.25
2023-01-23T14:26:19.424Z,100065.09
2023-01-23T14:28:54.776Z,100071.25
2023-01-23T14:31:24.998Z,100069.00
2023-01-23T14:34:09.110Z,100060.97
2023-01-23T14:36:38.010Z,100058.50
2023-01-23T14:39:08.112Z,100057.84
2023-01-23T14:41:41.577Z,100055.25
2023-01-23T14:44:24.423Z,100051.09
2023-01-23T14:46:54.069Z,100046.75
2023-01-23T14:49:27.533Z,100046.50
2023-01-23T14:52:04.099Z,100035.97
2023-01-23T14:54:33.386Z,100039.03
2023-01-23T14:57:04.307Z,100048.75
2023-01-23T14:59:40.077Z,100048.16
2023-01-23T15:02:31.478Z,100053.13
2023-01-23T15:05:07.579Z,100056.03
2023-01-23T15:07:35.635Z,100049.63
2023-01-23T15:10:02.883Z,100045.09
2023-01-23T15:13:05.885Z,100051.25
2023-01-23T15:15:34.758Z,100048.81
2023-01-23T15:18:03.606Z,100047.34
2023-01-23T15:20:36.247Z,100053.34
2023-01-23T15:23:33.876Z,100050.50
2023-01-23T15:26:19.790Z,100063.88
2023-01-23T15:29:09.653Z,100063.44
2023-01-23T15:31:42.643Z,100065.69
2023-01-23T15:34:15.698Z,100061.19
2023-01-23T15:36:53.264Z,100063.84
2023-01-23T15:39:35.267Z,100074.78
2023-01-23T15:42:29.412Z,100077.44
2023-01-23T15:45:00.866Z,100063.47
2023-01-23T15:47:29.855Z,100064.75
2023-01-23T15:50:01.468Z,100070.53
2023-01-23T15:52:48.623Z,100071.94
2023-01-23T15:55:16.052Z,100076.25
2023-01-23T15:57:43.882Z,100080.16
2023-01-23T16:00:19.923Z,100085.13
2023-01-23T16:02:56.424Z,100083.69
2023-01-23T16:05:30.322Z,100083.31
2023-01-23T16:08:01.030Z,100095.06
2023-01-23T16:10:31.286Z,100097.50
2023-01-23T16:12:58.410Z,100089.47
2023-01-23T16:15:33.157Z,100091.53
2023-01-23T16:18:04.500Z,100086.81
2023-01-23T16:20:34.695Z,100091.53
2023-01-23T16:23:15.250Z,100095.06
2023-01-23T16:25:45.524Z,100087.22
2023-01-23T16:28:20.924Z,100089.28
2023-01-23T16:30:48.950Z,100093.00
2023-01-23T16:33:15.971Z,100097.13
2023-01-23T16:35:43.992Z,100092.81
2023-01-23T16:38:26.569Z,100101.88
2023-01-23T16:40:54.808Z,100093.00
2023-01-23T16:43:22.615Z,100091.97
2023-01-23T16:45:49.531Z,100100.00
2023-01-23T16:48:26.300Z,100088.50
2023-01-23T16:50:58.740Z,100101.47
2023-01-23T16:53:27.771Z,100100.66
2023-01-23T16:55:59.246Z,100094.69
2023-01-23T16:58:29.346Z,100099.03
2023-01-23T17:01:01.138Z,100108.69
2023-01-23T17:03:32.770Z,100111.16
2023-01-23T17:06:00.101Z,100116.91
2023-01-23T17:08:27.669Z,100118.97
2023-01-23T17:10:59.881Z,100118.97
2023-01-23T17:13:28.459Z,100117.53
2023-01-23T17:15:56.121Z,100113.81
2023-01-23T17:18:26.116Z,100116.91
2023-01-23T17:20:54.934Z,100108.66
2023-01-23T17:23:22.869Z,100123.69
2023-01-23T17:25:59.842Z,100121.63
2023-01-23T17:28:27.380Z,100126.34
2023-01-23T17:30:55.554Z,100129.22
2023-01-23T17:33:31.374Z,100126.16
2023-01-23T17:35:59.968Z,100132.56
2023-01-23T17:38:31.553Z,100138.94
2023-01-23T17:40:58.486Z,100132.56
2023-01-23T17:43:25.267Z,100135.84
2023-01-23T17:45:52.979Z,100132.94
2023-01-23T17:48:27.767Z,100146.94
2023-01-23T17:50:54.921Z,100153.34
2023-01-23T17:53:22.103Z,100140.78
2023-01-23T17:55:48.924Z,100151.50
2023-01-23T17:58:16.144Z,100141.22
2023-01-23T18:00:44.739Z,100146.56
2023-01-23T18:03:17.883Z,100142.00
2023-01-23T18:05:44.660Z,100139.94
2023-01-23T18:08:16.261Z,100145.31
2023-01-23T18:10:45.329Z,100134.59
2023-01-23T18:13:40.400Z,100139.75
2023-01-23T18:16:26.993Z,100140.59
2023-01-23T18:19:03.578Z,100148.41
2023-01-23T18:21:30.685Z,100144.09
2023-01-23T18:23:57.802Z,100146.56
2023-01-23T18:26:48.976Z,100154.78
2023-01-23T18:29:31.030Z,100143.28
2023-01-23T18:32:25.237Z,100156.66
2023-01-23T18:35:24.328Z,100150.28
2023-01-23T18:38:07.773Z,100145.53
2023-01-23T18:41:12.489Z,100143.28
2023-01-23T18:43:43.688Z,100141.81
2023-01-23T18:46:18.608Z,100153.16
2023-01-23T18:48:47.090Z,100144.91
2023-01-23T18:51:25.585Z,100153.75
2023-01-23T18:54:18.708Z,100142.00
2023-01-23T18:57:23.445Z,100143.03
2023-01-23T19:00:14.300Z,100145.72
2023-01-23T19:02:45.225Z,100143.66
2023-01-23T19:05:16.207Z,100144.69
2023-01-23T19:07:45.033Z,100137.91
2023-01-23T19:10:18.377Z,100144.09
2023-01-23T19:13:13.598Z,100136.28
2023-01-23T19:15:51.221Z,100126.97
2023-01-23T19:18:40.757Z,100142.84
2023-01-23T19:21:14.016Z,100129.88
2023-01-23T19:24:00.531Z,100121.00
2023-01-23T19:26:29.951Z,100138.31
2023-01-23T19:28:59.735Z,100147.16
2023-01-23T19:31:29.887Z,100143.66
2023-01-23T19:33:57.416Z,100139.94
2023-01-23T19:36:24.626Z,100139.75
2023-01-23T19:39:00.803Z,100136.22
2023-01-23T19:41:41.569Z,100124.47
2023-01-23T19:44:15.187Z,100132.31
2023-01-23T19:46:43.193Z,100132.50
2023-01-23T19:49:11.141Z,100140.13
2023-01-23T19:51:39.283Z,100126.53
2023-01-23T19:54:09.318Z,100126.72
2023-01-23T19:56:36.899Z,100120.13
2023-01-23T19:59:03.704Z,100121.78
2023-01-23T20:01:38.626Z,100118.69
2023-01-23T20:04:15.876Z,100124.22
2023-01-23T20:06:45.733Z,100133.91
2023-01-23T20:09:15.579Z,100135.56
2023-01-23T20:11:42.897Z,100132.06
2023-01-23T20:14:09.697Z,100139.06
2023-01-23T20:16:40.279Z,100150.63
2023-01-23T20:19:07.848Z,100146.69
2023-01-23T20:21:35.188Z,100153.09
2023-01-23T20:24:02.081Z,100148.78
2023-01-23T20:26:29.057Z,100156.59
2023-01-23T20:28:56.011Z,100168.53
2023-01-23T20:31:23.140Z,100168.75
2023-01-23T20:33:50.463Z,100173.91
2023-01-23T20:36:17.302Z,100171.03
2023-01-23T20:38:44.442Z,100164.84
2023-01-23T20:41:13.937Z,100167.53
2023-01-23T20:43:43.221Z,100162.78
2023-01-23T20:46:11.471Z,100153.50
2023-01-23T20:48:40.253Z,100158.44
2023-01-23T20:51:09.636Z,100155.56
2023-01-23T20:53:39.479Z,100156.38
2023-01-23T20:56:12.218Z,100168.75
2023-01-23T20:59:00.241Z,100163.00
2023-01-23T21:01:29.946Z,100161.34
2023-01-23T21:03:57.083Z,100160.09
2023-01-23T21:06:23.851Z,100155.75
2023-01-23T21:08:50.584Z,100157.41
2023-01-23T21:11:19.872Z,100159.28
2023-01-23T21:13:51.965Z,100150.41
2023-01-23T21:16:18.877Z,100157.22
2023-01-23T21:18:46.886Z,100156.00
2023-01-23T21:21:19.123Z,100158.44
2023-01-23T21:23:48.782Z,100152.28
2023-01-23T21:26:22.290Z,100176.38
2023-01-23T21:28:51.047Z,100168.13
2023-01-23T21:31:21.541Z,100162.56
2023-01-23T21:33:48.933Z,100159.03
2023-01-23T21:36:19.523Z,100168.72
2023-01-23T21:38:46.494Z,100159.88
2023-01-23T21:41:13.656Z,100160.69
2023-01-23T21:43:40.600Z,100165.84
2023-01-23T21:46:07.357Z,100163.97
2023-01-23T21:48:34.846Z,100181.09
2023-01-23T21:51:08.505Z,100181.50
2023-01-23T21:53:40.457Z,100180.47
2023-01-23T21:56:08.930Z,100188.50
2023-01-23T21:58:36.393Z,100183.38
2023-01-23T22:01:29.370Z,100184.00
2023-01-23T22:03:56.912Z,100193.06
2023-01-23T22:06:23.655Z,100182.34
2023-01-23T22:08:50.697Z,100185.22
2023-01-23T22:11:17.495Z,100185.47
2023-01-23T22:13:44.313Z,100190.16
2023-01-23T22:16:12.197Z,100185.66
2023-01-23T22:18:39.076Z,100190.41
2023-01-23T22:21:07.040Z,100197.59
2023-01-23T22:23:33.875Z,100199.22
2023-01-23T22:26:03.914Z,100193.06
2023-01-23T22:28:31.191Z,100178.84
2023-01-23T22:30:58.165Z,100166.69
2023-01-23T22:33:30.067Z,100168.53
2023-01-23T22:36:04.439Z,100161.72
2023-01-23T22:38:32.036Z,100167.91
2023-01-23T22:41:00.655Z,100182.56
2023-01-23T22:43:27.835Z,100187.72
2023-01-23T22:46:09.402Z,100192.47
2023-01-23T22:48:36.913Z,100190.38
2023-01-23T22:51:06.218Z,100188.50
2023-01-23T22:53:33.950Z,100182.97
2023-01-23T22:56:05.022Z,100201.50
2023-01-23T22:58:32.554Z,100184.38
2023-01-23T23:01:00.887Z,100190.16
2023-01-23T23:03:31.193Z,100186.06
2023-01-23T23:06:00.225Z,100183.59
2023-01-23T23:08:27.811Z,100188.13
2023-01-23T23:11:24.236Z,100181.75
2023-01-23T23:13:51.709Z,100188.75
2023-01-23T23:16:21.927Z,100185.84
2023-01-23T23:18:51.002Z,100182.56
2023-01-23T23:21:21.404Z,100183.59
2023-01-23T23:23:48.534Z,100188.13
2023-01-23T23:26:15.746Z,100182.56
2023-01-23T23:28:42.856Z,100194.47
2023-01-23T23:31:10.823Z,100188.31
2023-01-23T23:33:38.227Z,100185.63
2023-01-23T23:36:07.367Z,100198.19
2023-01-23T23:38:34.461Z,100191.00
2023-01-23T23:41:06.725Z,100184.81
2023-01-23T23:43:34.767Z,100188.94
2023-01-23T23:46:04.377Z,100191.00
2023-01-23T23:48:32.825Z,100192.47
2023-01-23T23:51:00.871Z,100187.91
2023-01-23T23:53:28.137Z,100188.94
2023-01-23T23:55:55.267Z,100193.50
2023-01-23T23:58:23.853Z,100183.38
